Time,TemperatureF,DewpointF,PressureIn,WindDirection,WindDirectionDegrees,WindSpeedMPH,WindSpeedGustMPH,Humidity,HourlyPrecipIn,Conditions,Clouds,dailyrainin,SoftwareType,DateUTC
2013-07-20 00:13:00,78.6,68.8,29.88,SSE,157,5.8,-999.0,72,-99.99,,,0.00,Acu-Link.com,2013-07-20 05:13:00,
2013-07-20 00:28:00,78.3,68.9,29.88,SE,135,5.8,-999.0,73,-99.99,,,0.00,Acu-Link.com,2013-07-20 05:28:00,
2013-07-20 00:43:00,77.7,68.7,29.88,SSE,157,5.3,-999.0,74,-99.99,,,0.00,Acu-Link.com,2013-07-20 05:43:00,
2013-07-20 00:58:00,77.4,68.4,29.89,SE,135,4.7,-999.0,74,-99.99,,,0.00,Acu-Link.com,2013-07-20 05:58:00,
2013-07-20 01:13:00,76.8,67.9,29.89,SE,135,2.7,-999.0,74,-99.99,,,0.00,Acu-Link.com,2013-07-20 06:13:00,
2013-07-20 01:29:00,76.5,67.6,29.89,SSE,157,4.2,-999.0,74,-99.99,,,0.00,Acu-Link.com,2013-07-20 06:29:00,
2013-07-20 01:44:00,75.9,67.8,29.89,SSE,157,4.2,-999.0,76,-99.99,,,0.00,Acu-Link.com,2013-07-20 06:44:00,
2013-07-20 01:59:00,75.4,67.7,29.88,SSE,157,1.7,-999.0,77,-99.99,,,0.00,Acu-Link.com,2013-07-20 06:59:00,
2013-07-20 02:15:00,74.8,67.8,29.88,South,180,3.7,-999.0,79,-99.99,,,0.00,Acu-Link.com,2013-07-20 07:15:00,
2013-07-20 02:30:00,74.3,67.7,29.87,SSE,157,1.1,-999.0,80,-99.99,,,0.00,Acu-Link.com,2013-07-20 07:30:00,
2013-07-20 02:45:00,73.8,67.9,29.88,SSE,157,2.2,-999.0,82,-99.99,,,0.00,Acu-Link.com,2013-07-20 07:45:00,
2013-07-20 03:00:00,73.4,67.9,29.87,SSE,157,2.7,-999.0,83,-99.99,,,0.00,Acu-Link.com,2013-07-20 08:00:00,
2013-07-20 03:17:00,73.2,67.7,29.86,SSE,157,2.7,-999.0,83,-99.99,,,0.00,Acu-Link.com,2013-07-20 08:17:00,
2013-07-20 03:32:00,73.2,68.1,29.87,SSE,157,2.2,-999.0,84,-99.99,,,0.00,Acu-Link.com,2013-07-20 08:32:00,
2013-07-20 03:48:00,73.0,68.2,29.86,ESE,112,2.7,-999.0,85,-99.99,,,0.00,Acu-Link.com,2013-07-20 08:48:00,
2013-07-20 04:03:00,72.7,67.9,29.87,SE,135,4.2,-999.0,85,-99.99,,,0.00,Acu-Link.com,2013-07-20 09:03:00,
2013-07-20 04:18:00,72.5,68.1,29.86,SE,135,0.0,-999.0,86,-99.99,,,0.00,Acu-Link.com,2013-07-20 09:18:00,
2013-07-20 04:33:00,72.1,68.0,29.86,SSE,157,0.0,-999.0,87,-99.99,,,0.00,Acu-Link.com,2013-07-20 09:33:00,
2013-07-20 04:49:00,71.6,68.2,29.85,SSE,157,0.0,-999.0,89,-99.99,,,0.00,Acu-Link.com,2013-07-20 09:49:00,
2013-07-20 05:04:00,71.4,68.0,29.85,SE,135,2.7,-999.0,89,-99.99,,,0.00,Acu-Link.com,2013-07-20 10:04:00,
2013-07-20 05:19:00,71.2,68.1,29.86,SE,135,1.7,-999.0,90,-99.99,,,0.00,Acu-Link.com,2013-07-20 10:19:00,
2013-07-20 05:34:00,71.2,68.4,29.86,SE,135,2.7,-999.0,91,-99.99,,,0.00,Acu-Link.com,2013-07-20 10:34:00,
2013-07-20 05:49:00,71.1,68.3,29.86,ESE,112,3.7,-999.0,91,-99.99,,,0.00,Acu-Link.com,2013-07-20 10:49:00,
2013-07-20 06:05:00,71.1,68.3,29.86,SSE,157,3.2,-999.0,91,-99.99,,,0.00,Acu-Link.com,2013-07-20 11:05:00,
2013-07-20 06:20:00,71.1,68.7,29.87,SSE,157,2.7,-999.0,92,-99.99,,,0.00,Acu-Link.com,2013-07-20 11:20:00,
2013-07-20 06:35:00,70.9,68.5,29.87,SE,135,0.0,-999.0,92,-99.99,,,0.00,Acu-Link.com,2013-07-20 11:35:00,
2013-07-20 06:50:00,70.7,68.6,29.87,SSE,157,0.0,-999.0,93,-99.99,,,0.00,Acu-Link.com,2013-07-20 11:50:00,
2013-07-20 07:05:00,70.9,68.8,29.86,SSW,202,0.0,-999.0,93,-99.99,,,0.00,Acu-Link.com,2013-07-20 12:05:00,
2013-07-20 07:21:00,71.2,69.1,29.86,SE,135,3.2,-999.0,93,-99.99,,,0.00,Acu-Link.com,2013-07-20 12:21:00,
2013-07-20 07:36:00,71.4,69.3,29.86,SE,135,3.2,-999.0,93,-99.99,,,0.00,Acu-Link.com,2013-07-20 12:36:00,
2013-07-20 07:51:00,72.5,69.7,29.86,SSE,157,3.2,-999.0,91,-99.99,,,0.00,Acu-Link.com,2013-07-20 12:51:00,
2013-07-20 08:07:00,73.8,70.3,29.86,SE,135,2.2,-999.0,89,-99.99,,,0.00,Acu-Link.com,2013-07-20 13:07:00,
2013-07-20 08:22:00,74.8,70.3,29.86,South,180,2.2,-999.0,86,-99.99,,,0.00,Acu-Link.com,2013-07-20 13:22:00,
2013-07-20 08:37:00,76.5,70.9,29.86,WSW,247,4.7,-999.0,83,-99.99,,,0.00,Acu-Link.com,2013-07-20 13:37:00,
2013-07-20 08:53:00,78.4,71.3,29.86,SSW,202,2.2,-999.0,79,-99.99,,,0.00,Acu-Link.com,2013-07-20 13:53:00,
2013-07-20 09:08:00,80.6,71.1,29.86,East,90,1.7,-999.0,73,-99.99,,,0.00,Acu-Link.com,2013-07-20 14:08:00,
2013-07-20 09:23:00,81.7,70.1,29.86,SW,225,2.7,-999.0,68,-99.99,,,0.00,Acu-Link.com,2013-07-20 14:23:00,
2013-07-20 09:38:00,82.6,69.6,29.87,SW,225,3.2,-999.0,65,-99.99,,,0.00,Acu-Link.com,2013-07-20 14:38:00,
2013-07-20 09:54:00,83.5,68.1,29.86,SW,225,3.2,-999.0,60,-99.99,,,0.00,Acu-Link.com,2013-07-20 14:54:00,
2013-07-20 10:09:00,84.2,68.3,29.86,SSE,157,4.2,-999.0,59,-99.99,,,0.00,Acu-Link.com,2013-07-20 15:09:00,
2013-07-20 10:24:00,86.9,69.3,29.86,SW,225,6.8,-999.0,56,-99.99,,,0.00,Acu-Link.com,2013-07-20 15:24:00,
2013-07-20 10:39:00,89.2,69.8,29.86,SW,225,1.1,-999.0,53,-99.99,,,0.00,Acu-Link.com,2013-07-20 15:39:00,
2013-07-20 10:54:00,88.9,69.0,29.85,SW,225,4.2,-999.0,52,-99.99,,,0.00,Acu-Link.com,2013-07-20 15:54:00,
2013-07-20 11:10:00,90.5,69.3,29.86,SW,225,4.2,-999.0,50,-99.99,,,0.00,Acu-Link.com,2013-07-20 16:10:00,
2013-07-20 11:25:00,92.3,69.7,29.84,SE,135,4.7,-999.0,48,-99.99,,,0.00,Acu-Link.com,2013-07-20 16:25:00,
2013-07-20 11:40:00,91.9,69.4,29.85,SW,225,4.2,-999.0,48,-99.99,,,0.00,Acu-Link.com,2013-07-20 16:40:00,
2013-07-20 11:55:00,92.7,68.8,29.84,SSW,202,5.3,-999.0,46,-99.99,,,0.00,Acu-Link.com,2013-07-20 16:55:00,
2013-07-20 12:10:00,92.7,70.1,29.83,WSW,247,5.8,-999.0,48,-99.99,,,0.00,Acu-Link.com,2013-07-20 17:10:00,
2013-07-20 12:26:00,90.1,67.7,29.83,NNW,337,1.1,-999.0,48,-99.99,,,0.00,Acu-Link.com,2013-07-20 17:26:00,
2013-07-20 12:41:00,91.8,66.7,29.82,SW,225,6.3,-999.0,44,-99.99,,,0.00,Acu-Link.com,2013-07-20 17:41:00,
2013-07-20 12:57:00,92.1,66.3,29.82,SW,225,3.2,-999.0,43,-99.99,,,0.00,Acu-Link.com,2013-07-20 17:57:00,
2013-07-20 13:12:00,96.4,67.3,29.81,SSE,157,6.3,-999.0,39,-99.99,,,0.00,Acu-Link.com,2013-07-20 18:12:00,
2013-07-20 13:28:00,95.7,67.5,29.80,East,90,4.7,-999.0,40,-99.99,,,0.00,Acu-Link.com,2013-07-20 18:28:00,
2013-07-20 13:43:00,97.0,66.3,29.79,East,90,4.2,-999.0,37,-99.99,,,0.00,Acu-Link.com,2013-07-20 18:43:00,
2013-07-20 13:58:00,97.9,66.3,29.79,ESE,112,6.8,-999.0,36,-99.99,,,0.00,Acu-Link.com,2013-07-20 18:58:00,
2013-07-20 14:29:00,97.7,66.2,29.79,South,180,4.7,-999.0,36,-99.99,,,0.00,Acu-Link.com,2013-07-20 19:29:00,
2013-07-20 14:44:00,96.3,63.3,29.78,WSW,247,3.7,-999.0,34,-99.99,,,0.00,Acu-Link.com,2013-07-20 19:44:00,
2013-07-20 15:14:00,96.3,64.9,29.77,South,180,0.0,-999.0,36,-99.99,,,0.00,Acu-Link.com,2013-07-20 20:14:00,
2013-07-20 15:30:00,97.5,64.4,29.77,ENE,67,2.7,-999.0,34,-99.99,,,0.00,Acu-Link.com,2013-07-20 20:30:00,
2013-07-20 15:45:00,98.6,65.3,29.76,East,90,4.2,-999.0,34,-99.99,,,0.00,Acu-Link.com,2013-07-20 20:45:00,
2013-07-20 16:00:00,95.2,64.8,29.76,SE,135,5.3,-999.0,37,-99.99,,,0.00,Acu-Link.com,2013-07-20 21:00:00,
2013-07-20 16:15:00,95.0,63.8,29.74,ESE,112,3.7,-999.0,36,-99.99,,,0.00,Acu-Link.com,2013-07-20 21:15:00,
2013-07-20 16:31:00,96.3,64.1,29.74,SSW,202,3.2,-999.0,35,-99.99,,,0.00,Acu-Link.com,2013-07-20 21:31:00,
2013-07-20 16:46:00,96.4,63.4,29.74,NE,45,2.2,-999.0,34,-99.99,,,0.00,Acu-Link.com,2013-07-20 21:46:00,
2013-07-20 17:01:00,97.5,64.4,29.73,SSW,202,2.2,-999.0,34,-99.99,,,0.00,Acu-Link.com,2013-07-20 22:01:00,
2013-07-20 17:17:00,98.1,64.0,29.72,ESE,112,2.7,-999.0,33,-99.99,,,0.00,Acu-Link.com,2013-07-20 22:17:00,
2013-07-20 17:32:00,98.4,65.1,29.72,ESE,112,2.7,-999.0,34,-99.99,,,0.00,Acu-Link.com,2013-07-20 22:32:00,
2013-07-20 17:47:00,97.0,65.6,29.72,SSE,157,8.9,-999.0,36,-99.99,,,0.00,Acu-Link.com,2013-07-20 22:47:00,
2013-07-20 18:17:00,99.7,65.4,29.71,SSE,157,2.7,-999.0,33,-99.99,,,0.00,Acu-Link.com,2013-07-20 23:17:00,
2013-07-20 18:47:00,96.3,64.9,29.70,South,180,6.8,-999.0,36,-99.99,,,0.00,Acu-Link.com,2013-07-20 23:47:00,
2013-07-20 19:03:00,95.4,65.7,29.70,SSE,157,2.2,-999.0,38,-99.99,,,0.00,Acu-Link.com,2013-07-21 00:03:00,
2013-07-20 19:18:00,95.5,65.0,29.70,ESE,112,4.2,-999.0,37,-99.99,,,0.00,Acu-Link.com,2013-07-21 00:18:00,
2013-07-20 19:33:00,93.9,64.4,29.70,SSE,157,6.3,-999.0,38,-99.99,,,0.00,Acu-Link.com,2013-07-21 00:33:00,
2013-07-20 19:48:00,93.0,64.3,29.71,ESE,112,4.7,-999.0,39,-99.99,,,0.00,Acu-Link.com,2013-07-21 00:48:00,
2013-07-20 20:04:00,92.5,64.6,29.71,SSE,157,2.7,-999.0,40,-99.99,,,0.00,Acu-Link.com,2013-07-21 01:04:00,
2013-07-20 20:19:00,90.7,64.4,29.71,SSE,157,3.2,-999.0,42,-99.99,,,0.00,Acu-Link.com,2013-07-21 01:19:00,
2013-07-20 20:49:00,87.4,64.7,29.74,SE,135,3.2,-999.0,47,-99.99,,,0.00,Acu-Link.com,2013-07-21 01:49:00,
2013-07-20 21:04:00,86.2,64.8,29.75,SE,135,2.7,-999.0,49,-99.99,,,0.00,Acu-Link.com,2013-07-21 02:04:00,
2013-07-20 21:35:00,84.6,65.0,29.74,SE,135,2.2,-999.0,52,-99.99,,,0.00,Acu-Link.com,2013-07-21 02:35:00,
2013-07-20 21:50:00,83.8,65.4,29.75,SSE,157,1.7,-999.0,54,-99.99,,,0.00,Acu-Link.com,2013-07-21 02:50:00,
2013-07-20 22:05:00,83.1,65.2,29.76,SE,135,2.2,-999.0,55,-99.99,,,0.00,Acu-Link.com,2013-07-21 03:05:00,
2013-07-20 22:21:00,82.6,65.3,29.78,ESE,112,2.7,-999.0,56,-99.99,,,0.00,Acu-Link.com,2013-07-21 03:21:00,
2013-07-20 23:06:00,81.0,65.3,29.78,SSE,157,2.2,-999.0,59,-99.99,,,0.00,Acu-Link.com,2013-07-21 04:06:00,
2013-07-20 23:22:00,81.0,65.3,29.78,South,180,3.7,-999.0,59,-99.99,,,0.00,Acu-Link.com,2013-07-21 04:22:00,
2013-07-20 23:37:00,81.0,66.7,29.78,SE,135,5.3,-999.0,62,-99.99,,,0.00,Acu-Link.com,2013-07-21 04:37:00,
2013-07-20 23:52:00,80.6,66.8,29.79,SE,135,4.7,-999.0,63,-99.99,,,0.00,Acu-Link.com,2013-07-21 04:52:00,